createdAt,value
2018-08-28T00:00:02.747Z,16.10
2018-08-28T00:02:31.715Z,16.00
2018-08-28T00:05:01.974Z,16.00
2018-08-28T00:07:31.119Z,16.00
2018-08-28T00:10:00.051Z,15.90
2018-08-28T00:12:28.995Z,15.90
2018-08-28T00:14:57.770Z,15.80
2018-08-28T00:17:26.505Z,15.70
2018-08-28T00:19:56.093Z,15.60
2018-08-28T00:22:24.815Z,15.60
2018-08-28T00:24:53.642Z,15.50
2018-08-28T00:27:22.501Z,15.50
2018-08-28T00:29:51.387Z,15.40
2018-08-28T00:32:20.211Z,15.40
2018-08-28T00:34:49.726Z,15.30
2018-08-28T00:37:19.189Z,15.30
2018-08-28T00:39:49.802Z,15.30
2018-08-28T00:42:18.634Z,15.20
2018-08-28T00:44:47.559Z,15.20
2018-08-28T00:47:16.303Z,15.20
2018-08-28T00:49:45.117Z,15.10
2018-08-28T00:52:14.606Z,15.10
2018-08-28T00:54:43.312Z,15.20
2018-08-28T00:57:12.149Z,15.30
2018-08-28T00:59:41.123Z,15.50
2018-08-28T01:02:10.656Z,15.60
2018-08-28T01:04:39.452Z,15.70
2018-08-28T01:07:08.838Z,15.60
2018-08-28T01:09:38.327Z,15.50
2018-08-28T01:12:07.116Z,15.40
2018-08-28T01:14:35.957Z,15.20
2018-08-28T01:17:04.915Z,15.10
2018-08-28T01:19:33.567Z,14.90
2018-08-28T01:22:02.444Z,14.70
2018-08-28T01:24:31.384Z,14.60
2018-08-28T01:27:00.347Z,14.50
2018-08-28T01:29:29.197Z,14.60
2018-08-28T01:31:58.159Z,14.60
2018-08-28T01:34:26.967Z,14.60
2018-08-28T01:36:55.754Z,14.70
2018-08-28T01:39:24.511Z,14.80
2018-08-28T01:41:53.472Z,14.90
2018-08-28T01:44:22.262Z,15.00
2018-08-28T01:46:51.206Z,15.10
2018-08-28T01:49:20.045Z,15.10
2018-08-28T01:51:48.886Z,15.20
2018-08-28T01:54:17.737Z,15.20
2018-08-28T01:56:46.502Z,15.20
2018-08-28T01:59:15.274Z,15.20
2018-08-28T02:01:44.147Z,15.20
2018-08-28T02:04:12.943Z,15.20
2018-08-28T02:06:41.715Z,15.30
2018-08-28T02:09:10.499Z,15.30
2018-08-28T02:11:39.476Z,15.30
2018-08-28T02:14:08.961Z,15.30
2018-08-28T02:16:38.700Z,15.20
2018-08-28T02:19:08.222Z,15.10
2018-08-28T02:21:37.026Z,15.00
2018-08-28T02:24:06.183Z,15.00
2018-08-28T02:26:35.024Z,15.00
2018-08-28T02:29:03.802Z,14.90
2018-08-28T02:31:32.546Z,15.00
2018-08-28T02:34:01.514Z,15.10
2018-08-28T02:36:31.496Z,15.10
2018-08-28T02:39:00.297Z,15.20
2018-08-28T02:41:29.243Z,15.20
2018-08-28T02:43:58.009Z,15.10
2018-08-28T02:46:26.787Z,14.90
2018-08-28T02:48:55.881Z,14.80
2018-08-28T02:51:25.435Z,14.60
2018-08-28T02:53:55.150Z,14.50
2018-08-28T02:56:23.865Z,14.30
2018-08-28T02:58:52.548Z,14.20
2018-08-28T03:01:21.510Z,14.10
2018-08-28T03:03:50.348Z,14.10
2018-08-28T03:06:19.180Z,14.10
2018-08-28T03:08:48.027Z,14.00
2018-08-28T03:11:17.546Z,13.90
2018-08-28T03:13:47.355Z,13.90
2018-08-28T03:16:16.263Z,13.80
2018-08-28T03:18:45.181Z,13.80
2018-08-28T03:21:14.055Z,13.80
2018-08-28T03:23:42.828Z,13.80
2018-08-28T03:26:12.590Z,13.70
2018-08-28T03:28:41.383Z,13.70
2018-08-28T03:31:10.318Z,13.80
2018-08-28T03:33:39.141Z,13.90
2018-08-28T03:36:07.869Z,14.00
2018-08-28T03:38:36.762Z,14.10
2018-08-28T03:41:05.685Z,14.20
2018-08-28T03:43:34.767Z,14.20
2018-08-28T03:46:03.682Z,14.20
2018-08-28T03:48:32.523Z,14.10
2018-08-28T03:51:01.355Z,14.10
2018-08-28T03:53:30.337Z,14.10
2018-08-28T03:55:59.878Z,14.10
2018-08-28T03:58:28.650Z,14.10
2018-08-28T04:00:57.502Z,14.30
2018-08-28T04:03:26.298Z,14.40
2018-08-28T04:05:55.175Z,14.50
2018-08-28T04:08:24.051Z,14.60
2018-08-28T04:10:52.865Z,14.70
2018-08-28T04:13:21.945Z,14.70
2018-08-28T04:15:50.817Z,14.80
2018-08-28T04:18:19.623Z,14.80
2018-08-28T04:20:48.586Z,14.80
2018-08-28T04:23:17.442Z,14.90
2018-08-28T04:25:46.249Z,15.00
2018-08-28T04:28:14.999Z,15.00
2018-08-28T04:30:43.812Z,15.10
2018-08-28T04:33:12.643Z,15.10
2018-08-28T04:35:41.634Z,15.20
2018-08-28T04:38:10.522Z,15.20
2018-08-28T04:40:39.351Z,15.10
2018-08-28T04:43:08.150Z,15.00
2018-08-28T04:45:37.170Z,14.90
2018-08-28T04:48:06.570Z,14.70
2018-08-28T04:50:35.389Z,14.60
2018-08-28T04:53:05.160Z,14.40
2018-08-28T04:55:34.083Z,14.30
2018-08-28T04:58:02.946Z,14.30
2018-08-28T05:00:31.696Z,14.20
2018-08-28T05:03:00.572Z,14.20
2018-08-28T05:05:29.423Z,14.20
2018-08-28T05:07:58.219Z,14.20
2018-08-28T05:10:27.015Z,14.10
2018-08-28T05:12:55.856Z,14.10
2018-08-28T05:15:24.781Z,14.20
2018-08-28T05:17:53.546Z,14.30
2018-08-28T05:20:22.426Z,14.40
2018-08-28T05:22:51.203Z,14.70
2018-08-28T05:25:20.121Z,14.90
2018-08-28T05:27:49.409Z,15.00
2018-08-28T05:30:19.000Z,15.10
2018-08-28T05:32:47.778Z,15.20
2018-08-28T05:35:16.611Z,15.10
2018-08-28T05:37:45.632Z,15.20
2018-08-28T05:40:14.454Z,15.30
2018-08-28T05:42:43.254Z,15.40
2018-08-28T05:45:12.622Z,15.50
2018-08-28T05:47:41.533Z,15.70
2018-08-28T05:50:10.308Z,15.80
2018-08-28T05:52:38.983Z,15.90
2018-08-28T05:55:07.817Z,15.90
2018-08-28T05:57:36.586Z,16.00
2018-08-28T06:00:05.959Z,16.10
2018-08-28T06:02:34.774Z,16.20
2018-08-28T06:05:03.658Z,16.20
2018-08-28T06:07:32.574Z,16.30
2018-08-28T06:10:01.392Z,16.40
2018-08-28T06:12:30.686Z,16.50
2018-08-28T06:14:59.455Z,16.70
2018-08-28T06:17:28.363Z,16.70
2018-08-28T06:19:57.155Z,16.80
2018-08-28T06:22:26.229Z,16.80
2018-08-28T06:24:55.735Z,16.80
2018-08-28T06:27:24.551Z,16.80
2018-08-28T06:29:53.404Z,16.90
2018-08-28T06:32:22.233Z,17.00
2018-08-28T06:34:51.002Z,17.00
2018-08-28T06:37:20.248Z,17.00
2018-08-28T06:39:49.568Z,17.20
2018-08-28T06:42:18.546Z,17.30
2018-08-28T06:44:47.406Z,17.40
2018-08-28T06:47:16.166Z,17.60
2018-08-28T06:49:45.035Z,17.70
2018-08-28T06:52:13.831Z,17.90
2018-08-28T06:54:42.774Z,18.10
2018-08-28T06:57:11.616Z,18.20
2018-08-28T06:59:40.522Z,18.40
2018-08-28T07:02:10.284Z,18.60
2018-08-28T07:04:39.193Z,18.90
2018-08-28T07:07:08.415Z,19.20
2018-08-28T07:09:37.303Z,19.90
2018-08-28T07:12:06.239Z,20.50
2018-08-28T07:14:34.980Z,20.80
2018-08-28T07:17:04.029Z,21.10
2018-08-28T07:19:32.918Z,21.50
2018-08-28T07:22:01.779Z,21.90
2018-08-28T07:24:30.631Z,21.60
2018-08-28T07:26:59.585Z,21.60
2018-08-28T07:29:28.477Z,21.70
2018-08-28T07:31:57.551Z,22.10
2018-08-28T07:34:26.225Z,22.40
2018-08-28T07:36:55.126Z,22.70
2018-08-28T07:39:23.941Z,23.30
2018-08-28T07:41:52.932Z,25.20
2018-08-28T07:44:22.238Z,26.80
2018-08-28T07:46:51.243Z,28.50
2018-08-28T07:49:20.915Z,29.80
2018-08-28T07:51:50.467Z,29.80
2018-08-28T07:54:19.498Z,30.30
2018-08-28T07:56:48.927Z,30.40
2018-08-28T07:59:17.878Z,31.30
2018-08-28T08:01:46.752Z,31.70
2018-08-28T08:04:15.645Z,32.10
2018-08-28T08:06:44.615Z,32.50
2018-08-28T08:09:13.568Z,32.70
2018-08-28T08:11:42.310Z,33.10
2018-08-28T08:14:11.331Z,33.40
2018-08-28T08:16:40.197Z,33.40
2018-08-28T08:19:09.068Z,33.60
2018-08-28T08:21:38.026Z,34.10
2018-08-28T08:24:07.025Z,34.20
2018-08-28T08:26:36.015Z,34.30
2018-08-28T08:29:04.763Z,34.00
2018-08-28T08:31:33.658Z,34.00
2018-08-28T08:34:02.553Z,34.20
2018-08-28T08:36:31.337Z,34.60
2018-08-28T08:39:00.267Z,34.70
2018-08-28T08:41:29.797Z,35.50
2018-08-28T08:43:58.690Z,35.90
2018-08-28T08:46:28.507Z,36.30
2018-08-28T08:48:58.143Z,35.80
2018-08-28T08:51:26.882Z,36.30
2018-08-28T08:53:56.213Z,35.60
2018-08-28T08:56:25.125Z,36.00
2018-08-28T08:58:53.903Z,36.10
2018-08-28T09:01:22.866Z,35.80
2018-08-28T09:03:52.619Z,35.40
2018-08-28T09:06:22.023Z,35.10
2018-08-28T09:08:50.770Z,35.40
2018-08-28T09:11:20.127Z,35.70
2018-08-28T09:13:48.985Z,36.80
2018-08-28T09:16:17.789Z,36.60
2018-08-28T09:18:46.726Z,36.70
2018-08-28T09:21:15.601Z,35.50
2018-08-28T09:23:44.989Z,34.20
2018-08-28T09:26:13.868Z,33.20
2018-08-28T09:28:43.002Z,32.50
2018-08-28T09:31:12.527Z,31.90
2018-08-28T09:33:41.276Z,31.80
2018-08-28T09:36:10.184Z,31.50
2018-08-28T09:38:39.165Z,31.10
2018-08-28T09:41:07.891Z,30.90
2018-08-28T09:43:36.715Z,30.50
2018-08-28T09:46:05.827Z,30.10
2018-08-28T09:48:34.761Z,30.40
2018-08-28T09:51:03.638Z,31.00
2018-08-28T09:53:32.500Z,32.10
2018-08-28T09:56:01.398Z,33.50
2018-08-28T09:58:30.186Z,34.80
2018-08-28T10:01:04.269Z,34.90
2018-08-28T10:03:33.165Z,35.60
2018-08-28T10:06:02.003Z,36.60
2018-08-28T10:08:30.890Z,36.70
2018-08-28T10:11:00.691Z,36.60
2018-08-28T10:13:29.454Z,36.60
2018-08-28T10:15:58.188Z,37.20
2018-08-28T10:18:27.104Z,37.30
2018-08-28T10:20:55.790Z,37.30
2018-08-28T10:23:24.724Z,37.30
2018-08-28T10:25:53.475Z,37.50
2018-08-28T10:28:22.397Z,37.60
2018-08-28T10:30:51.185Z,37.10
2018-08-28T10:33:20.008Z,36.60
2018-08-28T10:35:48.930Z,36.60
2018-08-28T10:38:18.368Z,36.90
2018-08-28T10:40:47.136Z,36.90
2018-08-28T10:46:26.931Z,36.70
2018-08-28T10:48:55.758Z,37.00
2018-08-28T10:51:24.618Z,37.60
2018-08-28T10:53:53.185Z,38.50
2018-08-28T10:56:21.747Z,38.80
2018-08-28T10:58:50.381Z,38.90
2018-08-28T11:01:18.902Z,38.20
2018-08-28T11:03:47.513Z,38.10
2018-08-28T11:06:16.053Z,36.90
2018-08-28T11:08:44.683Z,36.10
2018-08-28T11:11:13.165Z,35.20
2018-08-28T11:13:42.525Z,34.50
2018-08-28T11:16:11.123Z,34.10
2018-08-28T11:18:39.621Z,34.50
2018-08-28T11:21:08.231Z,35.20
2018-08-28T11:23:36.798Z,35.80
2018-08-28T11:26:05.932Z,36.50
2018-08-28T11:28:34.640Z,36.30
2018-08-28T11:31:03.233Z,36.50
2018-08-28T11:33:31.803Z,36.30
2018-08-28T11:36:00.481Z,34.70
2018-08-28T11:38:29.181Z,34.30
2018-08-28T11:40:57.672Z,33.70
2018-08-28T11:43:26.242Z,32.60
2018-08-28T11:45:55.123Z,32.50
2018-08-28T11:48:24.026Z,31.90
2018-08-28T11:50:52.883Z,32.60
2018-08-28T11:53:21.814Z,33.90
2018-08-28T11:55:50.439Z,35.30
2018-08-28T11:58:19.832Z,35.40
2018-08-28T12:00:48.680Z,35.30
2018-08-28T12:03:17.463Z,34.60
2018-08-28T12:05:46.366Z,33.90
2018-08-28T12:08:16.065Z,33.80
2018-08-28T12:10:45.488Z,32.80
2018-08-28T12:13:14.343Z,31.60
2018-08-28T12:15:43.728Z,31.70
2018-08-28T12:18:12.520Z,32.20
2018-08-28T12:20:41.522Z,33.40
2018-08-28T12:23:10.270Z,34.00
2018-08-28T12:25:39.282Z,34.50
2018-08-28T12:28:08.325Z,33.50
2018-08-28T12:30:37.074Z,33.90
2018-08-28T12:33:05.896Z,32.70
2018-08-28T12:35:34.670Z,33.10
2018-08-28T12:38:03.602Z,34.20
2018-08-28T12:40:32.926Z,35.30
2018-08-28T12:43:01.799Z,36.00
2018-08-28T12:45:30.523Z,36.60
2018-08-28T12:47:59.303Z,36.80
2018-08-28T12:50:28.062Z,36.20
2018-08-28T12:52:57.066Z,35.90
2018-08-28T12:55:26.541Z,36.20
2018-08-28T12:57:55.325Z,35.60
2018-08-28T13:00:24.048Z,35.60
2018-08-28T13:02:52.786Z,35.60
2018-08-28T13:05:21.724Z,35.70
2018-08-28T13:07:50.401Z,35.80
2018-08-28T13:10:19.212Z,36.30
2018-08-28T13:12:48.613Z,35.80
2018-08-28T13:15:17.343Z,35.60
2018-08-28T13:17:46.192Z,34.40
2018-08-28T13:20:14.984Z,33.90
2018-08-28T13:22:43.853Z,33.60
2018-08-28T13:25:12.772Z,33.10
2018-08-28T13:27:41.595Z,33.30
2018-08-28T13:30:10.460Z,33.20
2018-08-28T13:32:40.047Z,33.30
2018-08-28T13:35:08.891Z,34.00
2018-08-28T13:37:38.250Z,34.70
2018-08-28T13:40:08.877Z,34.30
2018-08-28T13:42:38.349Z,34.30
2018-08-28T13:45:07.852Z,34.30
2018-08-28T13:47:36.926Z,34.50
2018-08-28T13:50:05.783Z,34.90
2018-08-28T13:52:35.222Z,35.00
2018-08-28T13:55:04.663Z,34.80
2018-08-28T13:57:33.606Z,34.70
2018-08-28T14:00:02.433Z,34.30
2018-08-28T14:02:31.779Z,34.50
2018-08-28T14:05:00.571Z,34.80
2018-08-28T14:07:29.424Z,35.10
2018-08-28T14:09:58.354Z,35.10
2018-08-28T14:12:27.958Z,35.10
2018-08-28T14:14:57.561Z,35.00
2018-08-28T14:17:26.863Z,34.50
2018-08-28T14:19:55.699Z,34.60
2018-08-28T14:22:25.316Z,34.10
2018-08-28T14:24:54.934Z,33.40
2018-08-28T14:27:24.529Z,33.10
2018-08-28T14:29:53.346Z,33.10
2018-08-28T14:32:22.353Z,33.30
2018-08-28T14:34:51.194Z,33.50
2018-08-28T14:37:20.094Z,32.90
2018-08-28T14:39:49.060Z,32.70
2018-08-28T14:42:17.869Z,32.60
2018-08-28T14:44:46.790Z,32.10
2018-08-28T14:47:15.680Z,32.30
2018-08-28T14:49:44.580Z,32.50
2018-08-28T14:52:13.886Z,32.90
2018-08-28T14:54:42.685Z,33.20
2018-08-28T14:57:11.509Z,33.30
2018-08-28T14:59:40.506Z,33.20
2018-08-28T15:02:09.238Z,33.10
2018-08-28T15:04:38.626Z,33.00
2018-08-28T15:07:07.720Z,32.90
2018-08-28T15:09:36.441Z,32.50
2018-08-28T15:12:05.853Z,32.10
2018-08-28T15:14:34.766Z,32.10
2018-08-28T15:17:28.123Z,32.10
2018-08-28T15:19:57.507Z,32.00
2018-08-28T15:22:26.980Z,31.70
2018-08-28T15:24:55.814Z,31.80
2018-08-28T15:27:27.820Z,31.80
2018-08-28T15:29:56.626Z,31.80
2018-08-28T15:32:38.029Z,31.90
2018-08-28T15:35:06.950Z,31.80
2018-08-28T15:37:35.806Z,31.50
2018-08-28T15:40:12.903Z,31.50
2018-08-28T15:42:41.846Z,31.40
2018-08-28T15:45:10.634Z,31.20
2018-08-28T15:47:49.147Z,31.20
2018-08-28T15:50:18.267Z,30.90
2018-08-28T15:52:47.531Z,30.60
2018-08-28T15:55:16.343Z,30.60
2018-08-28T15:57:45.223Z,30.50
2018-08-28T16:00:14.620Z,30.40
2018-08-28T16:02:43.543Z,30.50
2018-08-28T16:05:12.517Z,30.60
2018-08-28T16:07:41.389Z,30.30
2018-08-28T16:10:10.775Z,30.10
2018-08-28T16:12:39.616Z,30.10
2018-08-28T16:15:08.555Z,30.10
2018-08-28T16:17:37.448Z,29.90
2018-08-28T16:20:06.462Z,29.80
2018-08-28T16:23:08.421Z,29.50
2018-08-28T16:25:43.292Z,29.60
2018-08-28T16:28:12.104Z,29.80
2018-08-28T16:30:40.943Z,29.60
2018-08-28T16:33:09.979Z,29.40
2018-08-28T16:35:38.817Z,29.30
2018-08-28T16:38:07.855Z,29.10
2018-08-28T16:40:36.702Z,28.90
2018-08-28T16:43:05.519Z,28.80
2018-08-28T16:45:34.333Z,28.60
2018-08-28T16:48:03.149Z,28.50
2018-08-28T16:50:33.161Z,28.20
2018-08-28T16:53:03.729Z,27.80
2018-08-28T16:55:32.618Z,27.40
2018-08-28T16:58:01.487Z,27.00
2018-08-28T17:00:30.367Z,26.60
2018-08-28T17:02:59.281Z,26.30
2018-08-28T17:05:28.275Z,26.10
2018-08-28T17:07:57.150Z,25.70
2018-08-28T17:10:26.092Z,25.50
2018-08-28T17:12:55.677Z,25.30
2018-08-28T17:15:24.577Z,25.10
2018-08-28T17:17:54.052Z,24.90
2018-08-28T17:20:23.909Z,24.70
2018-08-28T17:22:53.269Z,24.60
2018-08-28T17:25:22.667Z,24.50
2018-08-28T17:27:52.183Z,24.30
2018-08-28T17:30:21.759Z,24.20
2018-08-28T17:32:51.305Z,24.10
2018-08-28T17:35:20.857Z,23.90
2018-08-28T17:37:50.389Z,23.80
2018-08-28T17:40:20.397Z,23.70
2018-08-28T17:42:49.320Z,23.60
2018-08-28T17:45:18.205Z,23.50
2018-08-28T17:47:47.142Z,23.20
2018-08-28T17:50:16.040Z,23.10
2018-08-28T17:52:44.937Z,22.90
2018-08-28T17:55:14.333Z,22.70
2018-08-28T17:57:43.844Z,22.50
2018-08-28T18:03:05.924Z,21.90
2018-08-28T18:05:35.020Z,21.60
2018-08-28T18:08:04.108Z,21.30
2018-08-28T18:10:33.041Z,21.00
2018-08-28T18:13:02.509Z,20.80
2018-08-28T18:15:37.051Z,20.60
2018-08-28T18:18:06.643Z,20.40
2018-08-28T18:20:41.104Z,20.20
2018-08-28T18:23:09.878Z,20.10
2018-08-28T18:25:40.054Z,20.00
2018-08-28T18:28:08.964Z,19.80
2018-08-28T18:30:37.833Z,19.70
2018-08-28T18:33:06.812Z,19.60
2018-08-28T18:35:35.711Z,19.50
2018-08-28T18:38:04.624Z,19.40
2018-08-28T18:40:33.582Z,19.30
2018-08-28T18:43:03.112Z,19.30
2018-08-28T18:45:32.547Z,19.30
2018-08-28T18:48:01.424Z,19.20
2018-08-28T18:50:30.418Z,19.10
2018-08-28T18:56:02.590Z,19.00
2018-08-28T18:58:31.440Z,19.00
2018-08-28T19:01:07.900Z,19.00
2018-08-28T19:03:36.682Z,18.90
2018-08-28T19:06:05.721Z,18.90
2018-08-28T19:08:34.635Z,18.80
2018-08-28T19:11:03.674Z,18.80
2018-08-28T19:13:32.574Z,18.70
2018-08-28T19:16:01.561Z,18.60
2018-08-28T19:18:30.519Z,18.50
2018-08-28T19:20:59.528Z,18.40
2018-08-28T19:23:29.050Z,18.40
2018-08-28T19:25:58.528Z,18.30
2018-08-28T19:28:27.507Z,18.20
2018-08-28T19:30:56.410Z,18.10
2018-08-28T19:33:25.745Z,18.10
2018-08-28T19:35:54.565Z,18.10
2018-08-28T19:38:23.785Z,18.10
2018-08-28T19:40:52.787Z,18.10
2018-08-28T19:43:21.794Z,18.10
2018-08-28T19:45:50.618Z,18.10
2018-08-28T19:48:20.565Z,18.00
2018-08-28T19:50:50.024Z,18.10
2018-08-28T19:53:19.483Z,18.10
2018-08-28T19:55:48.295Z,18.00
2018-08-28T19:58:17.198Z,17.90
2018-08-28T20:00:46.054Z,18.00
2018-08-28T20:03:14.858Z,18.00
2018-08-28T20:05:43.914Z,17.90
2018-08-28T20:08:12.839Z,17.80
2018-08-28T20:10:41.792Z,17.80
2018-08-28T20:13:10.697Z,17.70
2018-08-28T20:15:40.605Z,17.60
2018-08-28T20:18:09.675Z,17.60
2018-08-28T20:20:38.322Z,17.60
2018-08-28T20:23:07.057Z,17.70
2018-08-28T20:25:36.378Z,17.60
2018-08-28T20:28:04.973Z,17.40
2018-08-28T20:30:33.580Z,17.40
2018-08-28T20:33:02.138Z,17.40
2018-08-28T20:35:30.777Z,17.30
2018-08-28T20:37:59.569Z,17.20
2018-08-28T20:40:28.185Z,17.20
2018-08-28T20:42:56.775Z,17.20
2018-08-28T20:45:25.708Z,17.20
2018-08-28T20:47:54.612Z,17.20
2018-08-28T20:50:23.480Z,17.30
2018-08-28T20:52:52.317Z,17.20
2018-08-28T20:55:21.354Z,17.20
2018-08-28T20:57:50.213Z,17.20
2018-08-28T21:00:19.865Z,17.10
2018-08-28T21:02:48.827Z,17.00
2018-08-28T21:05:22.679Z,16.90
2018-08-28T21:07:52.137Z,16.90
2018-08-28T21:10:21.730Z,16.80
2018-08-28T21:12:51.389Z,16.80
2018-08-28T21:15:21.034Z,16.70
2018-08-28T21:17:49.932Z,16.60
2018-08-28T21:20:18.974Z,16.50
2018-08-28T21:22:49.115Z,16.50
2018-08-28T21:25:18.382Z,16.40
2018-08-28T21:27:47.242Z,16.40
2018-08-28T21:30:16.210Z,16.30
2018-08-28T21:32:45.023Z,16.30
2018-08-28T21:35:13.883Z,16.30
2018-08-28T21:37:42.828Z,16.30
2018-08-28T21:40:11.701Z,16.20
2018-08-28T21:42:41.206Z,16.20
2018-08-28T21:45:10.111Z,16.20
2018-08-28T21:47:38.975Z,16.10
2018-08-28T21:50:07.859Z,16.00
2018-08-28T21:52:36.647Z,15.90
2018-08-28T21:55:05.637Z,16.10
2018-08-28T21:57:34.393Z,16.00
2018-08-28T22:00:03.328Z,16.00
2018-08-28T22:02:32.263Z,16.00
2018-08-28T22:05:01.180Z,15.90
2018-08-28T22:07:35.127Z,16.00
2018-08-28T22:10:04.117Z,16.00
2018-08-28T22:12:32.901Z,16.00
2018-08-28T22:17:55.530Z,15.90
2018-08-28T22:20:24.743Z,15.90
2018-08-28T22:22:54.136Z,15.80
2018-08-28T22:25:23.717Z,15.80
2018-08-28T22:27:52.571Z,15.90
2018-08-28T22:30:21.432Z,15.70
2018-08-28T22:32:50.542Z,15.70
2018-08-28T22:35:19.440Z,15.70
2018-08-28T22:37:50.068Z,15.80
2018-08-28T22:40:18.990Z,15.80
2018-08-28T22:42:47.806Z,15.90
2018-08-28T22:45:16.778Z,15.80
2018-08-28T22:47:46.406Z,15.80
2018-08-28T22:50:16.273Z,15.70
2018-08-28T22:52:45.406Z,15.60
2018-08-28T22:55:14.242Z,15.60
2018-08-28T22:57:43.108Z,15.60
2018-08-28T23:00:12.018Z,15.50
2018-08-28T23:02:40.834Z,15.50
2018-08-28T23:05:10.226Z,15.50
2018-08-28T23:07:39.753Z,15.50
2018-08-28T23:10:08.667Z,15.50
2018-08-28T23:12:37.522Z,15.60
2018-08-28T23:15:07.403Z,15.60
2018-08-28T23:17:36.334Z,15.50
2018-08-28T23:20:05.619Z,15.40
2018-08-28T23:22:34.526Z,15.40
2018-08-28T23:25:03.470Z,15.50
2018-08-28T23:27:32.329Z,15.50
2018-08-28T23:30:01.563Z,15.40
2018-08-28T23:32:31.415Z,15.50
2018-08-28T23:35:00.900Z,15.40
2018-08-28T23:37:29.799Z,15.40
2018-08-28T23:39:58.725Z,15.40
2018-08-28T23:42:28.518Z,15.40
2018-08-28T23:44:57.383Z,15.30
2018-08-28T23:47:26.278Z,15.30
2018-08-28T23:49:55.194Z,15.30
2018-08-28T23:52:24.469Z,15.20
2018-08-28T23:54:53.327Z,15.20
2018-08-28T23:57:22.092Z,15.20
2018-08-28T23:59:50.952Z,15.20
